sensor_id;sensor_type;location;lat;lon;timestamp;P1;durP1;ratioP1;P2;durP2;ratioP2
31537;SDS011;18147;51.952;6.146;2024-03-08T00:01:35;69.15;;;33.42;;
31537;SDS011;18147;51.952;6.146;2024-03-08T00:04:00;72.10;;;33.17;;
31537;SDS011;18147;51.952;6.146;2024-03-08T00:06:26;71.32;;;33.15;;
31537;SDS011;18147;51.952;6.146;2024-03-08T00:08:52;80.93;;;34.20;;
31537;SDS011;18147;51.952;6.146;2024-03-08T00:11:17;73.45;;;35.58;;
31537;SDS011;18147;51.952;6.146;2024-03-08T00:13:43;67.20;;;32.75;;
31537;SDS011;18147;51.952;6.146;2024-03-08T00:16:10;74.38;;;34.47;;
31537;SDS011;18147;51.952;6.146;2024-03-08T00:18:35;67.95;;;32.78;;
31537;SDS011;18147;51.952;6.146;2024-03-08T00:21:01;77.28;;;33.70;;
31537;SDS011;18147;51.952;6.146;2024-03-08T00:23:26;75.97;;;34.30;;
31537;SDS011;18147;51.952;6.146;2024-03-08T00:25:53;73.90;;;34.50;;
31537;SDS011;18147;51.952;6.146;2024-03-08T00:28:20;72.80;;;35.13;;
31537;SDS011;18147;51.952;6.146;2024-03-08T00:30:45;72.15;;;34.38;;
31537;SDS011;18147;51.952;6.146;2024-03-08T00:33:11;74.90;;;35.20;;
31537;SDS011;18147;51.952;6.146;2024-03-08T00:35:37;71.72;;;35.38;;
31537;SDS011;18147;51.952;6.146;2024-03-08T00:38:02;73.82;;;33.33;;
31537;SDS011;18147;51.952;6.146;2024-03-08T00:40:28;75.10;;;35.63;;
31537;SDS011;18147;51.952;6.146;2024-03-08T00:42:54;68.60;;;34.08;;
31537;SDS011;18147;51.952;6.146;2024-03-08T00:45:19;73.82;;;34.75;;
31537;SDS011;18147;51.952;6.146;2024-03-08T00:47:44;71.85;;;33.55;;
31537;SDS011;18147;51.952;6.146;2024-03-08T00:50:10;70.20;;;33.13;;
31537;SDS011;18147;51.952;6.146;2024-03-08T00:52:36;76.15;;;37.13;;
31537;SDS011;18147;51.952;6.146;2024-03-08T00:55:02;67.10;;;32.67;;
31537;SDS011;18147;51.952;6.146;2024-03-08T00:57:28;67.57;;;31.98;;
31537;SDS011;18147;51.952;6.146;2024-03-08T00:59:54;69.32;;;35.13;;
31537;SDS011;18147;51.952;6.146;2024-03-08T01:02:19;68.07;;;34.20;;
31537;SDS011;18147;51.952;6.146;2024-03-08T01:04:46;73.45;;;35.53;;
31537;SDS011;18147;51.952;6.146;2024-03-08T01:07:12;70.22;;;34.10;;
31537;SDS011;18147;51.952;6.146;2024-03-08T01:09:37;73.40;;;33.55;;
31537;SDS011;18147;51.952;6.146;2024-03-08T01:12:03;70.38;;;34.42;;
31537;SDS011;18147;51.952;6.146;2024-03-08T01:14:28;65.47;;;32.28;;
31537;SDS011;18147;51.952;6.146;2024-03-08T01:16:55;71.55;;;34.83;;
31537;SDS011;18147;51.952;6.146;2024-03-08T01:19:20;67.80;;;35.08;;
31537;SDS011;18147;51.952;6.146;2024-03-08T01:21:46;68.88;;;34.60;;
31537;SDS011;18147;51.952;6.146;2024-03-08T01:24:11;66.45;;;33.63;;
31537;SDS011;18147;51.952;6.146;2024-03-08T01:26:37;73.22;;;35.67;;
31537;SDS011;18147;51.952;6.146;2024-03-08T01:29:02;69.32;;;34.85;;
31537;SDS011;18147;51.952;6.146;2024-03-08T01:31:31;71.75;;;36.08;;
31537;SDS011;18147;51.952;6.146;2024-03-08T01:33:57;70.65;;;35.42;;
31537;SDS011;18147;51.952;6.146;2024-03-08T01:36:23;63.38;;;32.50;;
31537;SDS011;18147;51.952;6.146;2024-03-08T01:38:49;63.15;;;32.88;;
31537;SDS011;18147;51.952;6.146;2024-03-08T01:41:15;65.03;;;33.75;;
31537;SDS011;18147;51.952;6.146;2024-03-08T01:43:42;65.45;;;34.45;;
31537;SDS011;18147;51.952;6.146;2024-03-08T01:46:09;65.05;;;33.35;;
31537;SDS011;18147;51.952;6.146;2024-03-08T01:48:36;70.10;;;35.53;;
31537;SDS011;18147;51.952;6.146;2024-03-08T01:51:01;65.30;;;34.83;;
31537;SDS011;18147;51.952;6.146;2024-03-08T01:53:28;65.60;;;34.42;;
31537;SDS011;18147;51.952;6.146;2024-03-08T01:55:57;63.40;;;33.38;;
31537;SDS011;18147;51.952;6.146;2024-03-08T01:58:23;66.20;;;34.47;;
31537;SDS011;18147;51.952;6.146;2024-03-08T02:00:53;65.20;;;34.47;;
31537;SDS011;18147;51.952;6.146;2024-03-08T02:03:19;66.72;;;35.17;;
31537;SDS011;18147;51.952;6.146;2024-03-08T02:05:45;63.95;;;34.45;;
31537;SDS011;18147;51.952;6.146;2024-03-08T02:08:11;63.35;;;33.95;;
31537;SDS011;18147;51.952;6.146;2024-03-08T02:10:43;68.20;;;36.20;;
31537;SDS011;18147;51.952;6.146;2024-03-08T02:13:09;76.65;;;36.63;;
31537;SDS011;18147;51.952;6.146;2024-03-08T02:15:55;68.32;;;34.70;;
31537;SDS011;18147;51.952;6.146;2024-03-08T02:18:24;62.85;;;34.28;;
31537;SDS011;18147;51.952;6.146;2024-03-08T02:20:57;66.25;;;34.33;;
31537;SDS011;18147;51.952;6.146;2024-03-08T02:23:23;60.90;;;32.95;;
31537;SDS011;18147;51.952;6.146;2024-03-08T02:25:52;65.13;;;35.05;;
31537;SDS011;18147;51.952;6.146;2024-03-08T02:28:19;63.88;;;35.67;;
31537;SDS011;18147;51.952;6.146;2024-03-08T02:30:48;65.72;;;34.60;;
31537;SDS011;18147;51.952;6.146;2024-03-08T02:33:15;64.20;;;36.22;;
31537;SDS011;18147;51.952;6.146;2024-03-08T02:35:42;65.25;;;34.67;;
31537;SDS011;18147;51.952;6.146;2024-03-08T02:38:11;61.25;;;34.92;;
31537;SDS011;18147;51.952;6.146;2024-03-08T02:40:47;65.88;;;34.60;;
31537;SDS011;18147;51.952;6.146;2024-03-08T02:45:45;66.15;;;37.83;;
31537;SDS011;18147;51.952;6.146;2024-03-08T02:48:11;65.93;;;35.53;;
31537;SDS011;18147;51.952;6.146;2024-03-08T02:50:37;70.43;;;36.97;;
31537;SDS011;18147;51.952;6.146;2024-03-08T02:53:05;66.32;;;36.95;;
31537;SDS011;18147;51.952;6.146;2024-03-08T02:55:31;69.90;;;35.88;;
31537;SDS011;18147;51.952;6.146;2024-03-08T02:57:58;69.95;;;36.88;;
31537;SDS011;18147;51.952;6.146;2024-03-08T03:00:24;68.75;;;36.67;;
31537;SDS011;18147;51.952;6.146;2024-03-08T03:02:49;67.63;;;37.00;;
31537;SDS011;18147;51.952;6.146;2024-03-08T03:05:19;65.45;;;35.25;;
31537;SDS011;18147;51.952;6.146;2024-03-08T03:07:48;70.53;;;36.35;;
31537;SDS011;18147;51.952;6.146;2024-03-08T03:10:14;73.60;;;36.30;;
31537;SDS011;18147;51.952;6.146;2024-03-08T03:12:44;67.18;;;36.80;;
31537;SDS011;18147;51.952;6.146;2024-03-08T03:15:11;74.35;;;38.45;;
31537;SDS011;18147;51.952;6.146;2024-03-08T03:17:38;68.65;;;36.78;;
31537;SDS011;18147;51.952;6.146;2024-03-08T03:20:07;70.88;;;37.60;;
31537;SDS011;18147;51.952;6.146;2024-03-08T03:22:38;70.57;;;36.85;;
31537;SDS011;18147;51.952;6.146;2024-03-08T03:25:04;62.03;;;34.70;;
31537;SDS011;18147;51.952;6.146;2024-03-08T03:27:31;66.82;;;37.25;;
31537;SDS011;18147;51.952;6.146;2024-03-08T03:29:57;72.30;;;35.05;;
31537;SDS011;18147;51.952;6.146;2024-03-08T03:32:23;70.30;;;37.75;;
31537;SDS011;18147;51.952;6.146;2024-03-08T03:34:48;72.22;;;36.65;;
31537;SDS011;18147;51.952;6.146;2024-03-08T03:37:18;72.75;;;38.25;;
31537;SDS011;18147;51.952;6.146;2024-03-08T03:39:46;78.70;;;37.90;;
31537;SDS011;18147;51.952;6.146;2024-03-08T03:42:15;68.18;;;37.13;;
31537;SDS011;18147;51.952;6.146;2024-03-08T03:44:41;66.30;;;35.97;;
31537;SDS011;18147;51.952;6.146;2024-03-08T03:47:09;67.93;;;36.42;;
31537;SDS011;18147;51.952;6.146;2024-03-08T03:49:35;71.93;;;39.88;;
31537;SDS011;18147;51.952;6.146;2024-03-08T03:52:00;71.13;;;37.58;;
31537;SDS011;18147;51.952;6.146;2024-03-08T03:54:26;71.55;;;39.08;;
31537;SDS011;18147;51.952;6.146;2024-03-08T03:56:51;66.90;;;38.13;;
31537;SDS011;18147;51.952;6.146;2024-03-08T03:59:18;76.78;;;39.47;;
31537;SDS011;18147;51.952;6.146;2024-03-08T04:01:44;68.82;;;36.25;;
31537;SDS011;18147;51.952;6.146;2024-03-08T04:04:09;67.55;;;36.90;;
31537;SDS011;18147;51.952;6.146;2024-03-08T04:06:37;65.15;;;35.78;;
31537;SDS011;18147;51.952;6.146;2024-03-08T04:09:02;71.47;;;37.78;;
31537;SDS011;18147;51.952;6.146;2024-03-08T04:11:29;70.13;;;36.15;;
31537;SDS011;18147;51.952;6.146;2024-03-08T04:13:55;72.03;;;38.28;;
31537;SDS011;18147;51.952;6.146;2024-03-08T04:16:21;68.82;;;37.33;;
31537;SDS011;18147;51.952;6.146;2024-03-08T04:18:46;64.53;;;36.17;;
31537;SDS011;18147;51.952;6.146;2024-03-08T04:21:12;66.65;;;35.88;;
31537;SDS011;18147;51.952;6.146;2024-03-08T04:23:38;65.80;;;34.25;;
31537;SDS011;18147;51.952;6.146;2024-03-08T04:26:03;71.65;;;37.70;;
31537;SDS011;18147;51.952;6.146;2024-03-08T04:28:30;73.72;;;38.40;;
31537;SDS011;18147;51.952;6.146;2024-03-08T04:30:56;67.47;;;36.85;;
31537;SDS011;18147;51.952;6.146;2024-03-08T04:33:22;69.28;;;36.03;;
31537;SDS011;18147;51.952;6.146;2024-03-08T04:35:48;67.82;;;36.90;;
31537;SDS011;18147;51.952;6.146;2024-03-08T04:38:14;69.13;;;38.22;;
31537;SDS011;18147;51.952;6.146;2024-03-08T04:40:40;69.20;;;37.17;;
31537;SDS011;18147;51.952;6.146;2024-03-08T04:43:06;71.63;;;37.03;;
31537;SDS011;18147;51.952;6.146;2024-03-08T04:45:33;77.45;;;40.13;;
31537;SDS011;18147;51.952;6.146;2024-03-08T04:47:59;76.68;;;37.67;;
31537;SDS011;18147;51.952;6.146;2024-03-08T04:50:24;71.32;;;37.70;;
31537;SDS011;18147;51.952;6.146;2024-03-08T04:52:50;72.82;;;36.55;;
31537;SDS011;18147;51.952;6.146;2024-03-08T04:55:15;70.70;;;36.58;;
31537;SDS011;18147;51.952;6.146;2024-03-08T04:57:40;73.40;;;37.67;;
31537;SDS011;18147;51.952;6.146;2024-03-08T05:00:08;59.08;;;35.00;;
31537;SDS011;18147;51.952;6.146;2024-03-08T05:02:36;68.70;;;37.50;;
31537;SDS011;18147;51.952;6.146;2024-03-08T05:05:04;67.45;;;37.30;;
31537;SDS011;18147;51.952;6.146;2024-03-08T05:07:31;71.82;;;38.47;;
31537;SDS011;18147;51.952;6.146;2024-03-08T05:09:58;73.07;;;38.20;;
31537;SDS011;18147;51.952;6.146;2024-03-08T05:12:25;66.55;;;35.45;;
31537;SDS011;18147;51.952;6.146;2024-03-08T05:14:51;78.43;;;38.75;;
31537;SDS011;18147;51.952;6.146;2024-03-08T05:17:16;73.32;;;37.88;;
31537;SDS011;18147;51.952;6.146;2024-03-08T05:19:42;73.47;;;39.10;;
31537;SDS011;18147;51.952;6.146;2024-03-08T05:22:08;71.68;;;37.90;;
31537;SDS011;18147;51.952;6.146;2024-03-08T05:24:33;68.88;;;35.17;;
31537;SDS011;18147;51.952;6.146;2024-03-08T05:26:59;66.93;;;36.05;;
31537;SDS011;18147;51.952;6.146;2024-03-08T05:29:25;69.93;;;37.15;;
31537;SDS011;18147;51.952;6.146;2024-03-08T05:31:51;69.32;;;36.67;;
31537;SDS011;18147;51.952;6.146;2024-03-08T05:34:17;70.60;;;37.30;;
31537;SDS011;18147;51.952;6.146;2024-03-08T05:36:44;65.32;;;36.80;;
31537;SDS011;18147;51.952;6.146;2024-03-08T05:39:14;77.82;;;39.08;;
31537;SDS011;18147;51.952;6.146;2024-03-08T05:41:40;74.72;;;38.53;;
31537;SDS011;18147;51.952;6.146;2024-03-08T05:44:06;70.18;;;37.85;;
31537;SDS011;18147;51.952;6.146;2024-03-08T05:46:32;72.65;;;38.47;;
31537;SDS011;18147;51.952;6.146;2024-03-08T05:48:58;70.82;;;38.00;;
31537;SDS011;18147;51.952;6.146;2024-03-08T05:51:27;74.55;;;39.00;;
31537;SDS011;18147;51.952;6.146;2024-03-08T05:53:52;71.30;;;37.05;;
31537;SDS011;18147;51.952;6.146;2024-03-08T05:56:18;79.28;;;39.33;;
31537;SDS011;18147;51.952;6.146;2024-03-08T05:58:44;70.10;;;36.38;;
31537;SDS011;18147;51.952;6.146;2024-03-08T06:01:10;70.55;;;38.63;;
31537;SDS011;18147;51.952;6.146;2024-03-08T06:03:37;72.60;;;38.63;;
31537;SDS011;18147;51.952;6.146;2024-03-08T06:06:11;71.55;;;38.15;;
31537;SDS011;18147;51.952;6.146;2024-03-08T06:08:37;74.70;;;38.70;;
31537;SDS011;18147;51.952;6.146;2024-03-08T06:11:02;76.18;;;40.38;;
31537;SDS011;18147;51.952;6.146;2024-03-08T06:13:28;73.43;;;38.95;;
31537;SDS011;18147;51.952;6.146;2024-03-08T06:15:56;77.13;;;39.22;;
31537;SDS011;18147;51.952;6.146;2024-03-08T06:18:22;75.55;;;39.75;;
31537;SDS011;18147;51.952;6.146;2024-03-08T06:20:47;74.38;;;38.92;;
31537;SDS011;18147;51.952;6.146;2024-03-08T06:23:13;80.43;;;41.30;;
31537;SDS011;18147;51.952;6.146;2024-03-08T06:25:43;77.30;;;40.55;;
31537;SDS011;18147;51.952;6.146;2024-03-08T06:28:11;74.90;;;40.80;;
31537;SDS011;18147;51.952;6.146;2024-03-08T06:30:36;73.88;;;38.80;;
31537;SDS011;18147;51.952;6.146;2024-03-08T06:33:02;72.85;;;39.78;;
31537;SDS011;18147;51.952;6.146;2024-03-08T06:35:28;74.20;;;38.90;;
31537;SDS011;18147;51.952;6.146;2024-03-08T06:37:53;69.47;;;37.85;;
31537;SDS011;18147;51.952;6.146;2024-03-08T06:40:18;71.18;;;39.22;;
31537;SDS011;18147;51.952;6.146;2024-03-08T06:42:44;74.63;;;39.50;;
31537;SDS011;18147;51.952;6.146;2024-03-08T06:45:10;76.13;;;40.85;;
31537;SDS011;18147;51.952;6.146;2024-03-08T06:47:37;73.38;;;38.78;;
31537;SDS011;18147;51.952;6.146;2024-03-08T06:50:03;79.18;;;39.95;;
31537;SDS011;18147;51.952;6.146;2024-03-08T06:52:29;77.05;;;39.78;;
31537;SDS011;18147;51.952;6.146;2024-03-08T06:54:54;74.18;;;39.40;;
31537;SDS011;18147;51.952;6.146;2024-03-08T06:57:22;70.13;;;38.85;;
31537;SDS011;18147;51.952;6.146;2024-03-08T06:59:48;70.45;;;38.47;;
31537;SDS011;18147;51.952;6.146;2024-03-08T07:02:14;72.80;;;37.80;;
31537;SDS011;18147;51.952;6.146;2024-03-08T07:04:39;75.82;;;38.63;;
31537;SDS011;18147;51.952;6.146;2024-03-08T07:07:05;77.47;;;40.00;;
31537;SDS011;18147;51.952;6.146;2024-03-08T07:09:31;71.78;;;39.47;;
31537;SDS011;18147;51.952;6.146;2024-03-08T07:11:57;70.18;;;38.03;;
31537;SDS011;18147;51.952;6.146;2024-03-08T07:14:23;74.30;;;40.25;;
31537;SDS011;18147;51.952;6.146;2024-03-08T07:16:49;76.32;;;39.60;;
31537;SDS011;18147;51.952;6.146;2024-03-08T07:19:16;72.35;;;40.55;;
31537;SDS011;18147;51.952;6.146;2024-03-08T07:21:42;72.50;;;39.42;;
31537;SDS011;18147;51.952;6.146;2024-03-08T07:24:12;72.07;;;38.38;;
31537;SDS011;18147;51.952;6.146;2024-03-08T07:27:04;72.25;;;38.65;;
31537;SDS011;18147;51.952;6.146;2024-03-08T07:29:30;70.60;;;38.55;;
31537;SDS011;18147;51.952;6.146;2024-03-08T07:31:59;73.40;;;38.88;;
31537;SDS011;18147;51.952;6.146;2024-03-08T07:34:44;68.15;;;37.50;;
31537;SDS011;18147;51.952;6.146;2024-03-08T07:37:10;71.95;;;38.60;;
31537;SDS011;18147;51.952;6.146;2024-03-08T07:39:38;68.97;;;38.17;;
31537;SDS011;18147;51.952;6.146;2024-03-08T07:42:04;67.88;;;37.55;;
31537;SDS011;18147;51.952;6.146;2024-03-08T07:44:30;68.80;;;37.88;;
31537;SDS011;18147;51.952;6.146;2024-03-08T07:46:56;68.72;;;39.10;;
31537;SDS011;18147;51.952;6.146;2024-03-08T07:49:22;67.25;;;36.47;;
31537;SDS011;18147;51.952;6.146;2024-03-08T07:51:47;65.88;;;37.20;;
31537;SDS011;18147;51.952;6.146;2024-03-08T07:54:14;66.05;;;37.75;;
31537;SDS011;18147;51.952;6.146;2024-03-08T07:56:40;65.50;;;36.80;;
31537;SDS011;18147;51.952;6.146;2024-03-08T07:59:07;67.53;;;38.28;;
31537;SDS011;18147;51.952;6.146;2024-03-08T08:01:33;69.57;;;38.05;;
31537;SDS011;18147;51.952;6.146;2024-03-08T08:04:01;64.25;;;37.42;;
31537;SDS011;18147;51.952;6.146;2024-03-08T08:06:27;67.18;;;38.80;;
31537;SDS011;18147;51.952;6.146;2024-03-08T08:08:53;66.47;;;36.85;;
31537;SDS011;18147;51.952;6.146;2024-03-08T08:11:18;61.78;;;35.15;;
31537;SDS011;18147;51.952;6.146;2024-03-08T08:13:45;65.47;;;36.92;;
31537;SDS011;18147;51.952;6.146;2024-03-08T08:16:10;68.47;;;38.30;;
31537;SDS011;18147;51.952;6.146;2024-03-08T08:18:38;66.07;;;36.83;;
31537;SDS011;18147;51.952;6.146;2024-03-08T08:21:04;65.30;;;36.60;;
31537;SDS011;18147;51.952;6.146;2024-03-08T08:23:31;63.05;;;35.92;;
31537;SDS011;18147;51.952;6.146;2024-03-08T08:25:59;65.82;;;36.40;;
31537;SDS011;18147;51.952;6.146;2024-03-08T08:28:26;63.70;;;36.50;;
31537;SDS011;18147;51.952;6.146;2024-03-08T08:30:52;65.28;;;35.13;;
31537;SDS011;18147;51.952;6.146;2024-03-08T08:33:17;69.30;;;36.20;;
31537;SDS011;18147;51.952;6.146;2024-03-08T08:35:42;64.72;;;35.83;;
31537;SDS011;18147;51.952;6.146;2024-03-08T08:38:08;70.40;;;37.17;;
31537;SDS011;18147;51.952;6.146;2024-03-08T08:40:34;58.40;;;35.50;;
31537;SDS011;18147;51.952;6.146;2024-03-08T08:43:01;67.25;;;35.47;;
31537;SDS011;18147;51.952;6.146;2024-03-08T08:45:29;70.82;;;35.33;;
31537;SDS011;18147;51.952;6.146;2024-03-08T08:47:55;66.85;;;37.55;;
31537;SDS011;18147;51.952;6.146;2024-03-08T08:50:21;67.80;;;37.13;;
31537;SDS011;18147;51.952;6.146;2024-03-08T08:52:49;63.63;;;36.03;;
31537;SDS011;18147;51.952;6.146;2024-03-08T08:55:14;68.13;;;35.88;;
31537;SDS011;18147;51.952;6.146;2024-03-08T08:57:40;61.75;;;35.42;;
31537;SDS011;18147;51.952;6.146;2024-03-08T09:00:06;63.42;;;36.80;;
31537;SDS011;18147;51.952;6.146;2024-03-08T09:02:33;62.83;;;35.38;;
31537;SDS011;18147;51.952;6.146;2024-03-08T09:04:59;61.38;;;34.67;;
31537;SDS011;18147;51.952;6.146;2024-03-08T09:07:26;59.13;;;34.72;;
31537;SDS011;18147;51.952;6.146;2024-03-08T09:09:53;57.95;;;34.42;;
31537;SDS011;18147;51.952;6.146;2024-03-08T09:12:22;58.95;;;34.42;;
31537;SDS011;18147;51.952;6.146;2024-03-08T09:14:48;58.95;;;34.25;;
31537;SDS011;18147;51.952;6.146;2024-03-08T09:17:14;62.75;;;37.05;;
31537;SDS011;18147;51.952;6.146;2024-03-08T09:19:42;63.30;;;35.63;;
31537;SDS011;18147;51.952;6.146;2024-03-08T09:22:08;62.35;;;36.17;;
31537;SDS011;18147;51.952;6.146;2024-03-08T09:24:34;60.75;;;32.17;;
31537;SDS011;18147;51.952;6.146;2024-03-08T09:26:59;56.15;;;32.20;;
31537;SDS011;18147;51.952;6.146;2024-03-08T09:29:25;58.22;;;33.85;;
31537;SDS011;18147;51.952;6.146;2024-03-08T09:31:50;57.95;;;34.47;;
31537;SDS011;18147;51.952;6.146;2024-03-08T09:34:16;56.97;;;33.22;;
31537;SDS011;18147;51.952;6.146;2024-03-08T09:36:44;57.55;;;34.25;;
31537;SDS011;18147;51.952;6.146;2024-03-08T09:39:09;56.08;;;33.13;;
31537;SDS011;18147;51.952;6.146;2024-03-08T09:41:35;56.08;;;32.17;;
31537;SDS011;18147;51.952;6.146;2024-03-08T09:44:00;60.13;;;34.40;;
31537;SDS011;18147;51.952;6.146;2024-03-08T09:46:26;56.10;;;33.03;;
31537;SDS011;18147;51.952;6.146;2024-03-08T09:48:55;54.17;;;32.85;;
31537;SDS011;18147;51.952;6.146;2024-03-08T09:51:27;49.25;;;30.08;;
31537;SDS011;18147;51.952;6.146;2024-03-08T09:53:53;57.47;;;32.78;;
31537;SDS011;18147;51.952;6.146;2024-03-08T09:56:19;56.97;;;30.80;;
31537;SDS011;18147;51.952;6.146;2024-03-08T09:58:46;55.03;;;31.63;;
31537;SDS011;18147;51.952;6.146;2024-03-08T10:01:38;56.00;;;31.90;;
31537;SDS011;18147;51.952;6.146;2024-03-08T10:04:04;53.55;;;31.00;;
31537;SDS011;18147;51.952;6.146;2024-03-08T10:06:30;49.05;;;30.40;;
31537;SDS011;18147;51.952;6.146;2024-03-08T10:08:56;68.82;;;32.22;;
31537;SDS011;18147;51.952;6.146;2024-03-08T10:11:22;54.90;;;31.45;;
31537;SDS011;18147;51.952;6.146;2024-03-08T10:13:49;54.17;;;31.90;;
31537;SDS011;18147;51.952;6.146;2024-03-08T10:16:15;52.47;;;29.85;;
31537;SDS011;18147;51.952;6.146;2024-03-08T10:18:42;53.35;;;30.63;;
31537;SDS011;18147;51.952;6.146;2024-03-08T10:21:11;50.03;;;30.00;;
31537;SDS011;18147;51.952;6.146;2024-03-08T10:23:37;54.55;;;29.98;;
31537;SDS011;18147;51.952;6.146;2024-03-08T10:26:09;48.45;;;28.35;;
31537;SDS011;18147;51.952;6.146;2024-03-08T10:28:35;47.85;;;28.50;;
31537;SDS011;18147;51.952;6.146;2024-03-08T10:31:01;43.70;;;26.40;;
31537;SDS011;18147;51.952;6.146;2024-03-08T10:33:26;48.03;;;29.73;;
31537;SDS011;18147;51.952;6.146;2024-03-08T10:35:52;43.90;;;27.00;;
31537;SDS011;18147;51.952;6.146;2024-03-08T10:38:18;49.25;;;30.00;;
31537;SDS011;18147;51.952;6.146;2024-03-08T10:40:48;49.30;;;27.77;;
31537;SDS011;18147;51.952;6.146;2024-03-08T10:43:23;45.65;;;27.80;;
31537;SDS011;18147;51.952;6.146;2024-03-08T10:45:50;43.25;;;26.65;;
31537;SDS011;18147;51.952;6.146;2024-03-08T10:48:28;48.03;;;28.02;;
31537;SDS011;18147;51.952;6.146;2024-03-08T10:51:04;46.17;;;27.85;;
31537;SDS011;18147;51.952;6.146;2024-03-08T10:53:30;53.20;;;28.85;;
31537;SDS011;18147;51.952;6.146;2024-03-08T10:55:56;47.70;;;27.88;;
31537;SDS011;18147;51.952;6.146;2024-03-08T10:58:23;47.15;;;26.77;;
31537;SDS011;18147;51.952;6.146;2024-03-08T11:00:55;46.13;;;27.85;;
31537;SDS011;18147;51.952;6.146;2024-03-08T11:06:06;44.55;;;25.85;;
31537;SDS011;18147;51.952;6.146;2024-03-08T11:08:39;43.35;;;27.92;;
31537;SDS011;18147;51.952;6.146;2024-03-08T11:11:04;39.53;;;25.52;;
31537;SDS011;18147;51.952;6.146;2024-03-08T11:13:40;38.63;;;24.52;;
31537;SDS011;18147;51.952;6.146;2024-03-08T11:16:13;39.97;;;25.23;;
31537;SDS011;18147;51.952;6.146;2024-03-08T11:18:58;43.97;;;27.63;;
31537;SDS011;18147;51.952;6.146;2024-03-08T11:21:29;44.30;;;27.55;;
31537;SDS011;18147;51.952;6.146;2024-03-08T11:23:59;45.10;;;24.38;;
31537;SDS011;18147;51.952;6.146;2024-03-08T11:26:33;41.72;;;26.05;;
31537;SDS011;18147;51.952;6.146;2024-03-08T11:29:46;38.30;;;24.48;;
31537;SDS011;18147;51.952;6.146;2024-03-08T11:32:05;39.70;;;23.75;;
31537;SDS011;18147;51.952;6.146;2024-03-08T11:34:38;40.45;;;23.98;;
31537;SDS011;18147;51.952;6.146;2024-03-08T11:37:12;40.28;;;25.40;;
31537;SDS011;18147;51.952;6.146;2024-03-08T11:39:39;40.20;;;24.15;;
31537;SDS011;18147;51.952;6.146;2024-03-08T11:42:05;39.20;;;22.90;;
31537;SDS011;18147;51.952;6.146;2024-03-08T11:44:31;42.70;;;24.98;;
31537;SDS011;18147;51.952;6.146;2024-03-08T11:46:57;35.17;;;22.15;;
31537;SDS011;18147;51.952;6.146;2024-03-08T11:49:23;38.13;;;23.50;;
31537;SDS011;18147;51.952;6.146;2024-03-08T11:51:51;38.35;;;23.17;;
31537;SDS011;18147;51.952;6.146;2024-03-08T11:54:18;41.10;;;25.38;;
31537;SDS011;18147;51.952;6.146;2024-03-08T11:56:44;38.83;;;22.77;;
31537;SDS011;18147;51.952;6.146;2024-03-08T11:59:12;36.60;;;22.15;;
31537;SDS011;18147;51.952;6.146;2024-03-08T12:01:38;32.97;;;20.95;;
31537;SDS011;18147;51.952;6.146;2024-03-08T12:04:04;36.45;;;22.58;;
31537;SDS011;18147;51.952;6.146;2024-03-08T12:06:37;37.25;;;23.65;;
31537;SDS011;18147;51.952;6.146;2024-03-08T12:09:07;39.53;;;22.90;;
31537;SDS011;18147;51.952;6.146;2024-03-08T12:11:34;38.90;;;22.98;;
31537;SDS011;18147;51.952;6.146;2024-03-08T12:14:01;38.20;;;23.95;;
31537;SDS011;18147;51.952;6.146;2024-03-08T12:16:27;41.00;;;23.70;;
31537;SDS011;18147;51.952;6.146;2024-03-08T12:18:52;39.20;;;24.48;;
31537;SDS011;18147;51.952;6.146;2024-03-08T12:21:21;40.67;;;22.65;;
31537;SDS011;18147;51.952;6.146;2024-03-08T12:24:01;37.53;;;25.02;;
31537;SDS011;18147;51.952;6.146;2024-03-08T12:26:29;39.85;;;24.65;;
31537;SDS011;18147;51.952;6.146;2024-03-08T12:28:56;41.25;;;24.55;;
31537;SDS011;18147;51.952;6.146;2024-03-08T12:31:45;39.28;;;24.48;;
31537;SDS011;18147;51.952;6.146;2024-03-08T12:34:11;38.38;;;24.83;;
31537;SDS011;18147;51.952;6.146;2024-03-08T12:36:38;41.80;;;24.35;;
31537;SDS011;18147;51.952;6.146;2024-03-08T12:39:10;39.50;;;25.17;;
31537;SDS011;18147;51.952;6.146;2024-03-08T12:41:40;37.50;;;23.02;;
31537;SDS011;18147;51.952;6.146;2024-03-08T12:44:09;40.53;;;23.80;;
31537;SDS011;18147;51.952;6.146;2024-03-08T12:46:36;44.53;;;26.35;;
31537;SDS011;18147;51.952;6.146;2024-03-08T12:49:06;40.08;;;24.65;;
31537;SDS011;18147;51.952;6.146;2024-03-08T12:51:33;49.83;;;27.48;;
31537;SDS011;18147;51.952;6.146;2024-03-08T12:53:58;43.40;;;26.23;;
31537;SDS011;18147;51.952;6.146;2024-03-08T12:56:31;37.95;;;25.00;;
31537;SDS011;18147;51.952;6.146;2024-03-08T12:58:58;39.55;;;25.02;;
31537;SDS011;18147;51.952;6.146;2024-03-08T13:01:25;44.05;;;25.27;;
31537;SDS011;18147;51.952;6.146;2024-03-08T13:03:51;41.47;;;24.48;;
31537;SDS011;18147;51.952;6.146;2024-03-08T13:06:18;38.58;;;24.90;;
31537;SDS011;18147;51.952;6.146;2024-03-08T13:08:46;45.90;;;25.85;;
31537;SDS011;18147;51.952;6.146;2024-03-08T13:11:13;35.65;;;24.45;;
31537;SDS011;18147;51.952;6.146;2024-03-08T13:13:41;38.67;;;24.90;;
31537;SDS011;18147;51.952;6.146;2024-03-08T13:16:08;40.40;;;24.95;;
31537;SDS011;18147;51.952;6.146;2024-03-08T13:18:34;41.95;;;25.65;;
31537;SDS011;18147;51.952;6.146;2024-03-08T13:20:59;43.33;;;25.67;;
31537;SDS011;18147;51.952;6.146;2024-03-08T13:23:30;38.35;;;23.80;;
31537;SDS011;18147;51.952;6.146;2024-03-08T13:25:55;39.20;;;23.65;;
31537;SDS011;18147;51.952;6.146;2024-03-08T13:28:22;41.70;;;24.58;;
31537;SDS011;18147;51.952;6.146;2024-03-08T13:30:53;39.10;;;24.05;;
31537;SDS011;18147;51.952;6.146;2024-03-08T13:33:19;51.50;;;25.15;;
31537;SDS011;18147;51.952;6.146;2024-03-08T13:35:45;35.83;;;22.65;;
31537;SDS011;18147;51.952;6.146;2024-03-08T13:38:11;35.42;;;23.10;;
31537;SDS011;18147;51.952;6.146;2024-03-08T13:40:38;38.95;;;23.38;;
31537;SDS011;18147;51.952;6.146;2024-03-08T13:43:05;41.60;;;23.73;;
31537;SDS011;18147;51.952;6.146;2024-03-08T13:45:33;38.88;;;23.30;;
31537;SDS011;18147;51.952;6.146;2024-03-08T13:48:03;46.40;;;26.80;;
31537;SDS011;18147;51.952;6.146;2024-03-08T13:50:29;38.25;;;23.42;;
31537;SDS011;18147;51.952;6.146;2024-03-08T13:52:55;38.88;;;23.75;;
31537;SDS011;18147;51.952;6.146;2024-03-08T13:55:21;37.78;;;24.67;;
31537;SDS011;18147;51.952;6.146;2024-03-08T13:57:49;37.88;;;24.73;;
31537;SDS011;18147;51.952;6.146;2024-03-08T14:00:18;38.67;;;23.98;;
31537;SDS011;18147;51.952;6.146;2024-03-08T14:02:47;38.20;;;23.50;;
31537;SDS011;18147;51.952;6.146;2024-03-08T14:05:14;36.88;;;23.67;;
31537;SDS011;18147;51.952;6.146;2024-03-08T14:07:41;36.50;;;23.48;;
31537;SDS011;18147;51.952;6.146;2024-03-08T14:10:06;39.95;;;24.05;;
31537;SDS011;18147;51.952;6.146;2024-03-08T14:12:35;42.25;;;25.48;;
31537;SDS011;18147;51.952;6.146;2024-03-08T14:15:01;37.17;;;24.67;;
31537;SDS011;18147;51.952;6.146;2024-03-08T14:17:26;41.58;;;24.90;;
31537;SDS011;18147;51.952;6.146;2024-03-08T14:19:53;37.85;;;23.13;;
31537;SDS011;18147;51.952;6.146;2024-03-08T14:22:19;36.33;;;22.13;;
31537;SDS011;18147;51.952;6.146;2024-03-08T14:24:45;35.58;;;23.13;;
31537;SDS011;18147;51.952;6.146;2024-03-08T14:27:10;39.50;;;23.98;;